sensor_id;sensor_type;location;lat;lon;timestamp;P1;durP1;ratioP1;P2;durP2;ratioP2
23044;SDS011;11690;51.716;23.066;2023-07-02T00:00:00;10.85;;;8.13;;
23044;SDS011;11690;51.716;23.066;2023-07-02T00:02:35;14.13;;;9.05;;
23044;SDS011;11690;51.716;23.066;2023-07-02T00:05:03;15.00;;;9.55;;
23044;SDS011;11690;51.716;23.066;2023-07-02T00:07:31;12.77;;;8.90;;
23044;SDS011;11690;51.716;23.066;2023-07-02T00:09:59;12.45;;;9.50;;
23044;SDS011;11690;51.716;23.066;2023-07-02T00:12:26;13.85;;;9.25;;
23044;SDS011;11690;51.716;23.066;2023-07-02T00:14:54;14.75;;;8.88;;
23044;SDS011;11690;51.716;23.066;2023-07-02T00:17:21;13.73;;;9.57;;
23044;SDS011;11690;51.716;23.066;2023-07-02T00:19:48;12.63;;;9.13;;
23044;SDS011;11690;51.716;23.066;2023-07-02T00:22:18;13.48;;;9.48;;
23044;SDS011;11690;51.716;23.066;2023-07-02T00:24:46;11.93;;;9.02;;
23044;SDS011;11690;51.716;23.066;2023-07-02T00:27:13;15.70;;;9.35;;
23044;SDS011;11690;51.716;23.066;2023-07-02T00:29:41;13.35;;;9.15;;
23044;SDS011;11690;51.716;23.066;2023-07-02T00:32:08;14.93;;;9.48;;
23044;SDS011;11690;51.716;23.066;2023-07-02T00:34:35;11.88;;;8.75;;
23044;SDS011;11690;51.716;23.066;2023-07-02T00:37:02;11.95;;;8.43;;
23044;SDS011;11690;51.716;23.066;2023-07-02T00:39:29;13.00;;;9.55;;
23044;SDS011;11690;51.716;23.066;2023-07-02T00:42:00;13.65;;;9.50;;
23044;SDS011;11690;51.716;23.066;2023-07-02T00:44:30;12.75;;;8.70;;
23044;SDS011;11690;51.716;23.066;2023-07-02T00:46:57;14.88;;;9.05;;
23044;SDS011;11690;51.716;23.066;2023-07-02T00:49:25;14.65;;;9.95;;
23044;SDS011;11690;51.716;23.066;2023-07-02T00:51:52;15.00;;;10.07;;
23044;SDS011;11690;51.716;23.066;2023-07-02T00:54:20;16.13;;;10.20;;
23044;SDS011;11690;51.716;23.066;2023-07-02T00:56:47;15.20;;;9.70;;
23044;SDS011;11690;51.716;23.066;2023-07-02T00:59:14;13.45;;;9.48;;
23044;SDS011;11690;51.716;23.066;2023-07-02T01:01:41;15.15;;;10.05;;
23044;SDS011;11690;51.716;23.066;2023-07-02T01:04:09;15.98;;;9.32;;
23044;SDS011;11690;51.716;23.066;2023-07-02T01:06:39;17.05;;;9.90;;
23044;SDS011;11690;51.716;23.066;2023-07-02T01:09:09;13.73;;;9.43;;
23044;SDS011;11690;51.716;23.066;2023-07-02T01:11:43;21.67;;;10.07;;
23044;SDS011;11690;51.716;23.066;2023-07-02T01:14:14;15.25;;;10.18;;
23044;SDS011;11690;51.716;23.066;2023-07-02T01:16:43;16.60;;;10.65;;
23044;SDS011;11690;51.716;23.066;2023-07-02T01:19:21;15.70;;;10.15;;
23044;SDS011;11690;51.716;23.066;2023-07-02T01:22:00;14.57;;;9.90;;
23044;SDS011;11690;51.716;23.066;2023-07-02T01:24:28;12.00;;;10.10;;
23044;SDS011;11690;51.716;23.066;2023-07-02T01:26:55;14.45;;;10.18;;
23044;SDS011;11690;51.716;23.066;2023-07-02T01:29:23;14.00;;;10.05;;
23044;SDS011;11690;51.716;23.066;2023-07-02T01:31:50;16.73;;;9.60;;
23044;SDS011;11690;51.716;23.066;2023-07-02T01:34:17;15.77;;;10.23;;
23044;SDS011;11690;51.716;23.066;2023-07-02T01:36:44;13.23;;;9.93;;
23044;SDS011;11690;51.716;23.066;2023-07-02T01:39:11;19.50;;;10.98;;
23044;SDS011;11690;51.716;23.066;2023-07-02T01:41:43;16.25;;;11.00;;
23044;SDS011;11690;51.716;23.066;2023-07-02T01:44:12;21.02;;;10.40;;
23044;SDS011;11690;51.716;23.066;2023-07-02T01:46:39;12.60;;;9.73;;
23044;SDS011;11690;51.716;23.066;2023-07-02T01:49:06;15.25;;;10.57;;
23044;SDS011;11690;51.716;23.066;2023-07-02T01:51:33;20.63;;;11.98;;
23044;SDS011;11690;51.716;23.066;2023-07-02T01:54:01;12.32;;;9.57;;
23044;SDS011;11690;51.716;23.066;2023-07-02T01:56:28;15.25;;;10.40;;
23044;SDS011;11690;51.716;23.066;2023-07-02T01:58:55;16.92;;;10.85;;
23044;SDS011;11690;51.716;23.066;2023-07-02T02:01:22;17.30;;;10.95;;
23044;SDS011;11690;51.716;23.066;2023-07-02T02:03:50;17.67;;;11.00;;
23044;SDS011;11690;51.716;23.066;2023-07-02T02:06:17;16.40;;;11.30;;
23044;SDS011;11690;51.716;23.066;2023-07-02T02:08:45;18.20;;;11.40;;
23044;SDS011;11690;51.716;23.066;2023-07-02T02:11:12;15.90;;;11.95;;
23044;SDS011;11690;51.716;23.066;2023-07-02T02:13:39;15.98;;;11.82;;
23044;SDS011;11690;51.716;23.066;2023-07-02T02:16:06;13.85;;;10.85;;
23044;SDS011;11690;51.716;23.066;2023-07-02T02:18:34;16.65;;;11.07;;
23044;SDS011;11690;51.716;23.066;2023-07-02T02:21:01;21.35;;;11.85;;
23044;SDS011;11690;51.716;23.066;2023-07-02T02:23:28;16.58;;;10.85;;
23044;SDS011;11690;51.716;23.066;2023-07-02T02:25:57;16.10;;;11.63;;
23044;SDS011;11690;51.716;23.066;2023-07-02T02:28:24;13.65;;;10.50;;
23044;SDS011;11690;51.716;23.066;2023-07-02T02:30:51;15.82;;;11.27;;
23044;SDS011;11690;51.716;23.066;2023-07-02T02:33:20;15.32;;;10.90;;
23044;SDS011;11690;51.716;23.066;2023-07-02T02:35:48;15.73;;;10.85;;
23044;SDS011;11690;51.716;23.066;2023-07-02T02:38:15;15.27;;;11.45;;
23044;SDS011;11690;51.716;23.066;2023-07-02T02:40:42;23.13;;;10.98;;
23044;SDS011;11690;51.716;23.066;2023-07-02T02:43:14;15.43;;;10.75;;
23044;SDS011;11690;51.716;23.066;2023-07-02T02:45:44;16.70;;;11.18;;
23044;SDS011;11690;51.716;23.066;2023-07-02T02:48:12;19.80;;;12.10;;
23044;SDS011;11690;51.716;23.066;2023-07-02T02:50:39;16.95;;;11.77;;
23044;SDS011;11690;51.716;23.066;2023-07-02T02:53:10;16.38;;;11.73;;
23044;SDS011;11690;51.716;23.066;2023-07-02T02:55:37;14.70;;;11.98;;
23044;SDS011;11690;51.716;23.066;2023-07-02T02:58:04;15.65;;;11.63;;
23044;SDS011;11690;51.716;23.066;2023-07-02T03:00:31;18.52;;;11.77;;
23044;SDS011;11690;51.716;23.066;2023-07-02T03:02:59;16.33;;;10.75;;
23044;SDS011;11690;51.716;23.066;2023-07-02T03:05:26;15.25;;;11.18;;
23044;SDS011;11690;51.716;23.066;2023-07-02T03:07:54;17.48;;;12.00;;
23044;SDS011;11690;51.716;23.066;2023-07-02T03:10:21;19.08;;;11.38;;
23044;SDS011;11690;51.716;23.066;2023-07-02T03:12:48;17.13;;;11.90;;
23044;SDS011;11690;51.716;23.066;2023-07-02T03:15:15;16.48;;;11.90;;
23044;SDS011;11690;51.716;23.066;2023-07-02T03:17:44;16.33;;;11.98;;
23044;SDS011;11690;51.716;23.066;2023-07-02T03:20:11;18.73;;;11.35;;
23044;SDS011;11690;51.716;23.066;2023-07-02T03:22:39;16.65;;;11.30;;
23044;SDS011;11690;51.716;23.066;2023-07-02T03:25:06;18.15;;;11.93;;
23044;SDS011;11690;51.716;23.066;2023-07-02T03:27:33;14.40;;;11.20;;
23044;SDS011;11690;51.716;23.066;2023-07-02T03:30:00;15.63;;;12.05;;
23044;SDS011;11690;51.716;23.066;2023-07-02T03:32:28;16.25;;;10.98;;
23044;SDS011;11690;51.716;23.066;2023-07-02T03:34:55;18.10;;;11.55;;
23044;SDS011;11690;51.716;23.066;2023-07-02T03:37:22;16.02;;;11.82;;
23044;SDS011;11690;51.716;23.066;2023-07-02T03:39:49;15.10;;;11.60;;
23044;SDS011;11690;51.716;23.066;2023-07-02T03:42:16;18.40;;;11.75;;
23044;SDS011;11690;51.716;23.066;2023-07-02T03:44:43;16.85;;;11.85;;
23044;SDS011;11690;51.716;23.066;2023-07-02T03:47:10;18.92;;;11.75;;
23044;SDS011;11690;51.716;23.066;2023-07-02T03:49:39;18.70;;;11.90;;
23044;SDS011;11690;51.716;23.066;2023-07-02T03:52:06;14.75;;;11.00;;
23044;SDS011;11690;51.716;23.066;2023-07-02T03:54:33;15.38;;;11.23;;
23044;SDS011;11690;51.716;23.066;2023-07-02T03:57:01;17.27;;;12.57;;
23044;SDS011;11690;51.716;23.066;2023-07-02T03:59:28;18.05;;;12.43;;
23044;SDS011;11690;51.716;23.066;2023-07-02T04:01:55;18.38;;;13.13;;
23044;SDS011;11690;51.716;23.066;2023-07-02T04:04:22;20.48;;;13.55;;
23044;SDS011;11690;51.716;23.066;2023-07-02T04:06:49;17.48;;;13.18;;
23044;SDS011;11690;51.716;23.066;2023-07-02T04:09:17;19.13;;;11.88;;
23044;SDS011;11690;51.716;23.066;2023-07-02T04:11:45;16.10;;;12.10;;
23044;SDS011;11690;51.716;23.066;2023-07-02T04:14:12;20.65;;;13.48;;
23044;SDS011;11690;51.716;23.066;2023-07-02T04:16:41;17.50;;;13.02;;
23044;SDS011;11690;51.716;23.066;2023-07-02T04:19:12;17.48;;;12.77;;
23044;SDS011;11690;51.716;23.066;2023-07-02T04:21:39;19.27;;;13.38;;
23044;SDS011;11690;51.716;23.066;2023-07-02T04:24:07;17.83;;;13.27;;
23044;SDS011;11690;51.716;23.066;2023-07-02T04:26:35;22.83;;;12.25;;
23044;SDS011;11690;51.716;23.066;2023-07-02T04:29:23;18.17;;;12.80;;
23044;SDS011;11690;51.716;23.066;2023-07-02T04:31:50;17.88;;;12.93;;
23044;SDS011;11690;51.716;23.066;2023-07-02T04:34:17;20.85;;;12.40;;
23044;SDS011;11690;51.716;23.066;2023-07-02T04:36:48;18.98;;;12.95;;
23044;SDS011;11690;51.716;23.066;2023-07-02T04:39:19;17.95;;;13.18;;
23044;SDS011;11690;51.716;23.066;2023-07-02T04:41:46;19.00;;;13.88;;
23044;SDS011;11690;51.716;23.066;2023-07-02T04:44:15;20.52;;;13.30;;
23044;SDS011;11690;51.716;23.066;2023-07-02T04:46:42;19.25;;;13.55;;
23044;SDS011;11690;51.716;23.066;2023-07-02T04:49:09;17.13;;;12.35;;
23044;SDS011;11690;51.716;23.066;2023-07-02T04:51:37;23.33;;;13.63;;
23044;SDS011;11690;51.716;23.066;2023-07-02T04:54:04;17.45;;;13.27;;
23044;SDS011;11690;51.716;23.066;2023-07-02T04:56:31;15.63;;;11.75;;
23044;SDS011;11690;51.716;23.066;2023-07-02T04:58:58;23.13;;;14.50;;
23044;SDS011;11690;51.716;23.066;2023-07-02T05:01:27;19.40;;;13.68;;
23044;SDS011;11690;51.716;23.066;2023-07-02T05:03:55;20.33;;;13.68;;
23044;SDS011;11690;51.716;23.066;2023-07-02T05:06:22;18.60;;;13.63;;
23044;SDS011;11690;51.716;23.066;2023-07-02T05:08:49;20.30;;;14.02;;
23044;SDS011;11690;51.716;23.066;2023-07-02T05:11:16;20.05;;;13.98;;
23044;SDS011;11690;51.716;23.066;2023-07-02T05:13:43;18.70;;;13.85;;
23044;SDS011;11690;51.716;23.066;2023-07-02T05:16:10;16.85;;;12.70;;
23044;SDS011;11690;51.716;23.066;2023-07-02T05:18:37;19.10;;;13.88;;
23044;SDS011;11690;51.716;23.066;2023-07-02T05:21:05;23.52;;;14.15;;
23044;SDS011;11690;51.716;23.066;2023-07-02T05:23:32;22.13;;;13.23;;
23044;SDS011;11690;51.716;23.066;2023-07-02T05:25:59;20.83;;;14.20;;
23044;SDS011;11690;51.716;23.066;2023-07-02T05:28:26;24.30;;;13.38;;
23044;SDS011;11690;51.716;23.066;2023-07-02T05:30:53;17.73;;;12.88;;
23044;SDS011;11690;51.716;23.066;2023-07-02T05:33:20;17.50;;;13.13;;
23044;SDS011;11690;51.716;23.066;2023-07-02T05:35:49;18.40;;;13.15;;
23044;SDS011;11690;51.716;23.066;2023-07-02T05:38:17;16.67;;;12.80;;
23044;SDS011;11690;51.716;23.066;2023-07-02T05:40:45;19.67;;;12.73;;
23044;SDS011;11690;51.716;23.066;2023-07-02T05:43:13;18.27;;;13.90;;
23044;SDS011;11690;51.716;23.066;2023-07-02T05:45:40;18.50;;;12.88;;
23044;SDS011;11690;51.716;23.066;2023-07-02T05:48:07;18.55;;;12.77;;
23044;SDS011;11690;51.716;23.066;2023-07-02T05:50:35;17.42;;;12.55;;
23044;SDS011;11690;51.716;23.066;2023-07-02T05:53:02;16.33;;;11.95;;
23044;SDS011;11690;51.716;23.066;2023-07-02T05:55:29;15.32;;;11.00;;
23044;SDS011;11690;51.716;23.066;2023-07-02T05:57:56;16.25;;;11.15;;
23044;SDS011;11690;51.716;23.066;2023-07-02T06:00:28;15.18;;;10.85;;
23044;SDS011;11690;51.716;23.066;2023-07-02T06:02:56;16.00;;;10.35;;
23044;SDS011;11690;51.716;23.066;2023-07-02T06:05:23;13.68;;;9.48;;
23044;SDS011;11690;51.716;23.066;2023-07-02T06:07:50;15.23;;;10.90;;
23044;SDS011;11690;51.716;23.066;2023-07-02T06:10:18;14.55;;;9.90;;
23044;SDS011;11690;51.716;23.066;2023-07-02T06:12:45;14.02;;;10.00;;
23044;SDS011;11690;51.716;23.066;2023-07-02T06:15:12;17.55;;;10.05;;
23044;SDS011;11690;51.716;23.066;2023-07-02T06:17:39;17.83;;;10.43;;
23044;SDS011;11690;51.716;23.066;2023-07-02T06:20:07;15.65;;;9.77;;
23044;SDS011;11690;51.716;23.066;2023-07-02T06:22:34;12.98;;;9.13;;
23044;SDS011;11690;51.716;23.066;2023-07-02T06:25:02;15.75;;;9.40;;
23044;SDS011;11690;51.716;23.066;2023-07-02T06:27:31;14.88;;;9.10;;
23044;SDS011;11690;51.716;23.066;2023-07-02T06:29:58;12.32;;;8.25;;
23044;SDS011;11690;51.716;23.066;2023-07-02T06:32:25;16.88;;;8.85;;
23044;SDS011;11690;51.716;23.066;2023-07-02T06:34:53;11.52;;;8.27;;
23044;SDS011;11690;51.716;23.066;2023-07-02T06:37:20;13.55;;;8.25;;
23044;SDS011;11690;51.716;23.066;2023-07-02T06:39:47;12.80;;;8.10;;
23044;SDS011;11690;51.716;23.066;2023-07-02T06:42:14;12.40;;;8.32;;
23044;SDS011;11690;51.716;23.066;2023-07-02T06:44:43;12.45;;;7.80;;
23044;SDS011;11690;51.716;23.066;2023-07-02T06:47:10;19.00;;;8.60;;
23044;SDS011;11690;51.716;23.066;2023-07-02T06:49:37;11.07;;;7.40;;
23044;SDS011;11690;51.716;23.066;2023-07-02T06:52:04;12.35;;;7.85;;
23044;SDS011;11690;51.716;23.066;2023-07-02T06:54:32;12.45;;;7.60;;
23044;SDS011;11690;51.716;23.066;2023-07-02T06:56:59;11.50;;;6.72;;
23044;SDS011;11690;51.716;23.066;2023-07-02T06:59:26;14.90;;;7.50;;
23044;SDS011;11690;51.716;23.066;2023-07-02T07:01:53;9.93;;;7.22;;
23044;SDS011;11690;51.716;23.066;2023-07-02T07:04:21;13.15;;;7.45;;
23044;SDS011;11690;51.716;23.066;2023-07-02T07:06:48;11.38;;;7.10;;
23044;SDS011;11690;51.716;23.066;2023-07-02T07:09:15;11.63;;;6.80;;
23044;SDS011;11690;51.716;23.066;2023-07-02T07:11:44;12.68;;;7.13;;
23044;SDS011;11690;51.716;23.066;2023-07-02T07:14:11;8.77;;;5.60;;
23044;SDS011;11690;51.716;23.066;2023-07-02T07:16:38;8.90;;;6.40;;
23044;SDS011;11690;51.716;23.066;2023-07-02T07:19:06;21.08;;;7.20;;
23044;SDS011;11690;51.716;23.066;2023-07-02T07:21:34;9.15;;;5.68;;
23044;SDS011;11690;51.716;23.066;2023-07-02T07:24:02;7.22;;;5.15;;
23044;SDS011;11690;51.716;23.066;2023-07-02T07:26:29;9.75;;;5.13;;
23044;SDS011;11690;51.716;23.066;2023-07-02T07:28:56;8.38;;;5.63;;
23044;SDS011;11690;51.716;23.066;2023-07-02T07:31:24;8.35;;;5.53;;
23044;SDS011;11690;51.716;23.066;2023-07-02T07:33:52;7.57;;;5.65;;
23044;SDS011;11690;51.716;23.066;2023-07-02T07:36:19;11.07;;;5.85;;
23044;SDS011;11690;51.716;23.066;2023-07-02T07:38:46;6.82;;;5.03;;
23044;SDS011;11690;51.716;23.066;2023-07-02T07:41:13;8.82;;;5.25;;
23044;SDS011;11690;51.716;23.066;2023-07-02T07:43:41;7.22;;;4.53;;
23044;SDS011;11690;51.716;23.066;2023-07-02T07:46:08;8.13;;;5.25;;
23044;SDS011;11690;51.716;23.066;2023-07-02T07:48:35;9.02;;;5.30;;
23044;SDS011;11690;51.716;23.066;2023-07-02T07:51:02;7.40;;;4.75;;
23044;SDS011;11690;51.716;23.066;2023-07-02T07:53:30;8.60;;;5.30;;
23044;SDS011;11690;51.716;23.066;2023-07-02T07:55:57;8.38;;;4.68;;
23044;SDS011;11690;51.716;23.066;2023-07-02T07:58:24;6.63;;;4.45;;
23044;SDS011;11690;51.716;23.066;2023-07-02T08:00:52;7.35;;;4.45;;
23044;SDS011;11690;51.716;23.066;2023-07-02T08:03:20;9.60;;;4.45;;
23044;SDS011;11690;51.716;23.066;2023-07-02T08:05:47;8.57;;;4.72;;
23044;SDS011;11690;51.716;23.066;2023-07-02T08:08:15;8.32;;;4.85;;
23044;SDS011;11690;51.716;23.066;2023-07-02T08:10:42;8.50;;;4.78;;
23044;SDS011;11690;51.716;23.066;2023-07-02T08:13:09;6.60;;;4.63;;
23044;SDS011;11690;51.716;23.066;2023-07-02T08:15:37;7.07;;;4.55;;
23044;SDS011;11690;51.716;23.066;2023-07-02T08:18:04;9.68;;;4.78;;
23044;SDS011;11690;51.716;23.066;2023-07-02T08:20:34;6.43;;;4.13;;
23044;SDS011;11690;51.716;23.066;2023-07-02T08:23:01;8.52;;;4.43;;
23044;SDS011;11690;51.716;23.066;2023-07-02T08:25:28;7.20;;;4.82;;
23044;SDS011;11690;51.716;23.066;2023-07-02T08:27:55;6.80;;;4.93;;
23044;SDS011;11690;51.716;23.066;2023-07-02T08:30:23;5.82;;;4.10;;
23044;SDS011;11690;51.716;23.066;2023-07-02T08:32:50;7.65;;;4.70;;
23044;SDS011;11690;51.716;23.066;2023-07-02T08:35:17;8.30;;;4.40;;
23044;SDS011;11690;51.716;23.066;2023-07-02T08:37:44;6.55;;;4.53;;
23044;SDS011;11690;51.716;23.066;2023-07-02T08:40:18;4.40;;;3.90;;
23044;SDS011;11690;51.716;23.066;2023-07-02T08:42:46;8.50;;;3.90;;
23044;SDS011;11690;51.716;23.066;2023-07-02T08:45:16;8.48;;;3.80;;
23044;SDS011;11690;51.716;23.066;2023-07-02T08:47:44;5.95;;;3.72;;
23044;SDS011;11690;51.716;23.066;2023-07-02T08:50:13;6.15;;;3.67;;
23044;SDS011;11690;51.716;23.066;2023-07-02T08:52:40;5.97;;;3.92;;
23044;SDS011;11690;51.716;23.066;2023-07-02T08:55:09;7.13;;;3.88;;
23044;SDS011;11690;51.716;23.066;2023-07-02T08:57:36;5.90;;;4.20;;
23044;SDS011;11690;51.716;23.066;2023-07-02T09:00:04;8.02;;;4.22;;
23044;SDS011;11690;51.716;23.066;2023-07-02T09:02:35;5.88;;;3.80;;
23044;SDS011;11690;51.716;23.066;2023-07-02T09:05:03;7.15;;;4.20;;
23044;SDS011;11690;51.716;23.066;2023-07-02T09:07:31;6.05;;;3.92;;
23044;SDS011;11690;51.716;23.066;2023-07-02T09:09:58;6.72;;;4.15;;
23044;SDS011;11690;51.716;23.066;2023-07-02T09:12:26;6.22;;;3.90;;
23044;SDS011;11690;51.716;23.066;2023-07-02T09:14:57;7.55;;;3.63;;
23044;SDS011;11690;51.716;23.066;2023-07-02T09:17:26;7.18;;;4.05;;
23044;SDS011;11690;51.716;23.066;2023-07-02T09:19:57;7.53;;;4.03;;
23044;SDS011;11690;51.716;23.066;2023-07-02T09:22:27;9.18;;;3.90;;
23044;SDS011;11690;51.716;23.066;2023-07-02T09:24:56;5.55;;;3.58;;
23044;SDS011;11690;51.716;23.066;2023-07-02T09:27:37;7.50;;;3.50;;
23044;SDS011;11690;51.716;23.066;2023-07-02T09:30:09;4.97;;;3.72;;
23044;SDS011;11690;51.716;23.066;2023-07-02T09:32:43;4.63;;;3.40;;
23044;SDS011;11690;51.716;23.066;2023-07-02T09:35:12;10.82;;;3.53;;
23044;SDS011;11690;51.716;23.066;2023-07-02T09:37:42;6.43;;;3.47;;
23044;SDS011;11690;51.716;23.066;2023-07-02T09:40:10;7.00;;;3.28;;
23044;SDS011;11690;51.716;23.066;2023-07-02T09:42:38;4.05;;;3.10;;
23044;SDS011;11690;51.716;23.066;2023-07-02T09:45:07;7.20;;;3.67;;
23044;SDS011;11690;51.716;23.066;2023-07-02T09:47:37;6.05;;;3.47;;
23044;SDS011;11690;51.716;23.066;2023-07-02T09:50:07;12.10;;;3.63;;
23044;SDS011;11690;51.716;23.066;2023-07-02T09:52:35;6.38;;;3.45;;
23044;SDS011;11690;51.716;23.066;2023-07-02T09:55:02;5.68;;;3.63;;
23044;SDS011;11690;51.716;23.066;2023-07-02T09:57:31;9.73;;;3.97;;
23044;SDS011;11690;51.716;23.066;2023-07-02T09:59:59;4.72;;;3.20;;
23044;SDS011;11690;51.716;23.066;2023-07-02T10:02:27;6.65;;;3.15;;
23044;SDS011;11690;51.716;23.066;2023-07-02T10:04:55;7.95;;;3.20;;
23044;SDS011;11690;51.716;23.066;2023-07-02T10:07:27;7.90;;;3.72;;
23044;SDS011;11690;51.716;23.066;2023-07-02T10:09:55;5.20;;;3.10;;
23044;SDS011;11690;51.716;23.066;2023-07-02T10:12:24;6.97;;;3.35;;
23044;SDS011;11690;51.716;23.066;2023-07-02T10:14:54;7.93;;;3.35;;
23044;SDS011;11690;51.716;23.066;2023-07-02T10:17:25;8.38;;;3.90;;
23044;SDS011;11690;51.716;23.066;2023-07-02T10:19:56;4.20;;;2.97;;
23044;SDS011;11690;51.716;23.066;2023-07-02T10:22:25;5.43;;;3.50;;
23044;SDS011;11690;51.716;23.066;2023-07-02T10:24:56;6.18;;;4.07;;
23044;SDS011;11690;51.716;23.066;2023-07-02T10:27:33;6.05;;;3.88;;
23044;SDS011;11690;51.716;23.066;2023-07-02T10:30:03;9.18;;;3.60;;
23044;SDS011;11690;51.716;23.066;2023-07-02T10:32:32;5.88;;;4.30;;
23044;SDS011;11690;51.716;23.066;2023-07-02T10:35:12;6.68;;;4.28;;
23044;SDS011;11690;51.716;23.066;2023-07-02T10:37:41;6.35;;;3.40;;
23044;SDS011;11690;51.716;23.066;2023-07-02T10:40:08;10.38;;;3.97;;
23044;SDS011;11690;51.716;23.066;2023-07-02T10:42:49;6.18;;;3.88;;
23044;SDS011;11690;51.716;23.066;2023-07-02T10:45:18;6.80;;;3.95;;
23044;SDS011;11690;51.716;23.066;2023-07-02T10:47:46;6.32;;;3.92;;
23044;SDS011;11690;51.716;23.066;2023-07-02T10:50:16;6.75;;;3.78;;
23044;SDS011;11690;51.716;23.066;2023-07-02T10:52:45;5.50;;;3.90;;
23044;SDS011;11690;51.716;23.066;2023-07-02T10:55:18;6.10;;;3.50;;
23044;SDS011;11690;51.716;23.066;2023-07-02T10:57:47;6.85;;;3.30;;
23044;SDS011;11690;51.716;23.066;2023-07-02T11:00:17;3.75;;;2.88;;
23044;SDS011;11690;51.716;23.066;2023-07-02T11:02:45;5.40;;;2.85;;
23044;SDS011;11690;51.716;23.066;2023-07-02T11:05:13;4.70;;;3.00;;
23044;SDS011;11690;51.716;23.066;2023-07-02T11:07:41;6.03;;;3.70;;
23044;SDS011;11690;51.716;23.066;2023-07-02T11:10:09;6.03;;;3.50;;
23044;SDS011;11690;51.716;23.066;2023-07-02T11:12:39;6.47;;;4.13;;
23044;SDS011;11690;51.716;23.066;2023-07-02T11:17:40;6.50;;;3.90;;
23044;SDS011;11690;51.716;23.066;2023-07-02T11:20:09;6.60;;;3.95;;
23044;SDS011;11690;51.716;23.066;2023-07-02T11:22:38;5.95;;;3.97;;
23044;SDS011;11690;51.716;23.066;2023-07-02T11:25:12;5.05;;;3.60;;
23044;SDS011;11690;51.716;23.066;2023-07-02T11:27:48;9.52;;;3.83;;
23044;SDS011;11690;51.716;23.066;2023-07-02T11:30:15;6.07;;;3.63;;
23044;SDS011;11690;51.716;23.066;2023-07-02T11:32:46;6.75;;;3.38;;
23044;SDS011;11690;51.716;23.066;2023-07-02T11:35:18;7.50;;;3.78;;
23044;SDS011;11690;51.716;23.066;2023-07-02T11:37:45;8.57;;;4.28;;
23044;SDS011;11690;51.716;23.066;2023-07-02T11:40:13;5.95;;;3.72;;
23044;SDS011;11690;51.716;23.066;2023-07-02T11:42:40;5.63;;;3.35;;
23044;SDS011;11690;51.716;23.066;2023-07-02T11:45:07;9.35;;;4.65;;
23044;SDS011;11690;51.716;23.066;2023-07-02T11:47:35;8.82;;;4.78;;
23044;SDS011;11690;51.716;23.066;2023-07-02T11:50:02;6.22;;;4.05;;
23044;SDS011;11690;51.716;23.066;2023-07-02T11:52:42;7.82;;;4.13;;
23044;SDS011;11690;51.716;23.066;2023-07-02T11:55:09;5.43;;;4.03;;
23044;SDS011;11690;51.716;23.066;2023-07-02T11:57:36;6.18;;;3.95;;
23044;SDS011;11690;51.716;23.066;2023-07-02T12:00:03;5.40;;;3.83;;
23044;SDS011;11690;51.716;23.066;2023-07-02T12:02:34;8.18;;;3.92;;
23044;SDS011;11690;51.716;23.066;2023-07-02T12:05:01;6.68;;;3.05;;
23044;SDS011;11690;51.716;23.066;2023-07-02T12:07:32;5.72;;;3.08;;
23044;SDS011;11690;51.716;23.066;2023-07-02T12:09:59;3.30;;;2.15;;
23044;SDS011;11690;51.716;23.066;2023-07-02T12:12:26;4.72;;;2.70;;
23044;SDS011;11690;51.716;23.066;2023-07-02T12:14:53;3.30;;;2.42;;
23044;SDS011;11690;51.716;23.066;2023-07-02T12:17:20;4.90;;;2.10;;
23044;SDS011;11690;51.716;23.066;2023-07-02T12:19:48;3.00;;;1.70;;
23044;SDS011;11690;51.716;23.066;2023-07-02T12:22:15;3.10;;;1.70;;
23044;SDS011;11690;51.716;23.066;2023-07-02T12:24:44;2.00;;;1.63;;
23044;SDS011;11690;51.716;23.066;2023-07-02T12:27:11;2.35;;;1.92;;
23044;SDS011;11690;51.716;23.066;2023-07-02T12:29:38;2.35;;;1.65;;
23044;SDS011;11690;51.716;23.066;2023-07-02T12:32:06;2.80;;;2.00;;
23044;SDS011;11690;51.716;23.066;2023-07-02T12:34:33;2.75;;;1.90;;
23044;SDS011;11690;51.716;23.066;2023-07-02T12:37:00;3.00;;;1.70;;
23044;SDS011;11690;51.716;23.066;2023-07-02T12:39:27;3.05;;;1.95;;
23044;SDS011;11690;51.716;23.066;2023-07-02T12:41:55;6.70;;;1.60;;
23044;SDS011;11690;51.716;23.066;2023-07-02T12:44:22;3.08;;;1.80;;
23044;SDS011;11690;51.716;23.066;2023-07-02T12:46:49;4.10;;;1.95;;
23044;SDS011;11690;51.716;23.066;2023-07-02T12:49:16;3.35;;;2.25;;
23044;SDS011;11690;51.716;23.066;2023-07-02T12:51:44;2.20;;;1.73;;
23044;SDS011;11690;51.716;23.066;2023-07-02T12:54:11;7.20;;;2.05;;
23044;SDS011;11690;51.716;23.066;2023-07-02T12:56:38;3.70;;;2.60;;
23044;SDS011;11690;51.716;23.066;2023-07-02T12:59:05;4.00;;;2.55;;
23044;SDS011;11690;51.716;23.066;2023-07-02T13:01:32;4.65;;;2.55;;
23044;SDS011;11690;51.716;23.066;2023-07-02T13:03:59;3.13;;;2.40;;
23044;SDS011;11690;51.716;23.066;2023-07-02T13:06:27;3.55;;;2.55;;
23044;SDS011;11690;51.716;23.066;2023-07-02T13:08:54;2.83;;;2.30;;
23044;SDS011;11690;51.716;23.066;2023-07-02T13:11:22;4.35;;;2.30;;
23044;SDS011;11690;51.716;23.066;2023-07-02T13:13:49;3.38;;;2.30;;
23044;SDS011;11690;51.716;23.066;2023-07-02T13:16:17;4.25;;;2.15;;
23044;SDS011;11690;51.716;23.066;2023-07-02T13:18:44;5.03;;;2.58;;
23044;SDS011;11690;51.716;23.066;2023-07-02T13:21:11;2.63;;;1.98;;
23044;SDS011;11690;51.716;23.066;2023-07-02T13:23:38;3.03;;;1.90;;
23044;SDS011;11690;51.716;23.066;2023-07-02T13:26:05;2.97;;;1.98;;
23044;SDS011;11690;51.716;23.066;2023-07-02T13:28:32;3.38;;;1.90;;
23044;SDS011;11690;51.716;23.066;2023-07-02T13:30:59;1.80;;;1.40;;
23044;SDS011;11690;51.716;23.066;2023-07-02T13:33:26;2.88;;;1.50;;
23044;SDS011;11690;51.716;23.066;2023-07-02T13:35:55;2.33;;;1.65;;
23044;SDS011;11690;51.716;23.066;2023-07-02T13:38:23;2.25;;;1.63;;
23044;SDS011;11690;51.716;23.066;2023-07-02T13:40:50;2.33;;;1.63;;
23044;SDS011;11690;51.716;23.066;2023-07-02T13:43:17;3.72;;;1.80;;
23044;SDS011;11690;51.716;23.066;2023-07-02T13:45:44;5.82;;;2.00;;
23044;SDS011;11690;51.716;23.066;2023-07-02T13:48:11;2.47;;;1.77;;
23044;SDS011;11690;51.716;23.066;2023-07-02T13:50:38;2.53;;;1.67;;
23044;SDS011;11690;51.716;23.066;2023-07-02T13:53:05;3.13;;;2.03;;
23044;SDS011;11690;51.716;23.066;2023-07-02T13:55:32;9.82;;;2.00;;
23044;SDS011;11690;51.716;23.066;2023-07-02T13:57:59;2.28;;;1.60;;
23044;SDS011;11690;51.716;23.066;2023-07-02T14:00:27;3.30;;;1.90;;
23044;SDS011;11690;51.716;23.066;2023-07-02T14:02:54;9.10;;;1.70;;
23044;SDS011;11690;51.716;23.066;2023-07-02T14:05:22;2.08;;;1.70;;
23044;SDS011;11690;51.716;23.066;2023-07-02T14:07:50;2.47;;;1.83;;
23044;SDS011;11690;51.716;23.066;2023-07-02T14:10:17;3.10;;;2.10;;
23044;SDS011;11690;51.716;23.066;2023-07-02T14:12:44;2.45;;;1.50;;
23044;SDS011;11690;51.716;23.066;2023-07-02T14:15:11;1.95;;;1.40;;
23044;SDS011;11690;51.716;23.066;2023-07-02T14:17:38;1.85;;;1.52;;
23044;SDS011;11690;51.716;23.066;2023-07-02T14:20:07;2.03;;;1.40;;
23044;SDS011;11690;51.716;23.066;2023-07-02T14:22:35;2.28;;;1.67;;
23044;SDS011;11690;51.716;23.066;2023-07-02T14:25:02;1.67;;;1.20;;
23044;SDS011;11690;51.716;23.066;2023-07-02T14:27:29;5.40;;;1.40;;
23044;SDS011;11690;51.716;23.066;2023-07-02T14:29:56;2.28;;;1.17;;